sensor_id;sensor_type;location;lat;lon;timestamp;pressure;altitude;pressure_sealevel;temperature;humidity
44001;BME280;29660;42.892;24.710;2022-07-25T00:00:28;96817.97;;;20.56;99.73
44001;BME280;29660;42.892;24.710;2022-07-25T00:05:30;97056.31;;;22.16;100.00
44001;BME280;29660;42.892;24.710;2022-07-25T00:10:38;96872.88;;;20.92;100.00
44001;BME280;29660;42.892;24.710;2022-07-25T00:15:40;96639.63;;;19.29;100.00
44001;BME280;29660;42.892;24.710;2022-07-25T00:20:42;96850.97;;;20.62;100.00
44001;BME280;29660;42.892;24.710;2022-07-25T00:25:44;96838.84;;;20.55;100.00
44001;BME280;29660;42.892;24.710;2022-07-25T00:30:46;96799.63;;;20.14;100.00
44001;BME280;29660;42.892;24.710;2022-07-25T00:35:48;96939.22;;;20.98;100.00
44001;BME280;29660;42.892;24.710;2022-07-25T00:40:50;96866.16;;;20.31;100.00
44001;BME280;29660;42.892;24.710;2022-07-25T00:45:54;96958.34;;;21.05;100.00
44001;BME280;29660;42.892;24.710;2022-07-25T00:50:57;97025.66;;;21.35;100.00
44001;BME280;29660;42.892;24.710;2022-07-25T00:55:59;96974.34;;;20.91;100.00
44001;BME280;29660;42.892;24.710;2022-07-25T01:01:02;96818.16;;;19.96;100.00
44001;BME280;29660;42.892;24.710;2022-07-25T01:06:04;96963.00;;;21.04;100.00
44001;BME280;29660;42.892;24.710;2022-07-25T01:11:06;96813.44;;;20.09;100.00
44001;BME280;29660;42.892;24.710;2022-07-25T01:16:09;96734.69;;;19.63;100.00
44001;BME280;29660;42.892;24.710;2022-07-25T01:21:11;96749.59;;;19.73;100.00
44001;BME280;29660;42.892;24.710;2022-07-25T01:26:13;96747.91;;;19.84;100.00
44001;BME280;29660;42.892;24.710;2022-07-25T01:31:15;96796.47;;;20.12;100.00
44001;BME280;29660;42.892;24.710;2022-07-25T01:36:18;96752.91;;;19.82;100.00
44001;BME280;29660;42.892;24.710;2022-07-25T01:41:20;96985.53;;;21.44;100.00
44001;BME280;29660;42.892;24.710;2022-07-25T01:46:23;96935.03;;;21.00;100.00
44001;BME280;29660;42.892;24.710;2022-07-25T01:51:25;96976.50;;;21.20;100.00
44001;BME280;29660;42.892;24.710;2022-07-25T01:56:27;96689.88;;;19.30;100.00
44001;BME280;29660;42.892;24.710;2022-07-25T02:01:29;96914.31;;;20.73;100.00
44001;BME280;29660;42.892;24.710;2022-07-25T02:06:31;96922.81;;;20.71;100.00
44001;BME280;29660;42.892;24.710;2022-07-25T02:11:35;96730.50;;;19.50;100.00
44001;BME280;29660;42.892;24.710;2022-07-25T02:16:37;96617.69;;;18.68;100.00
44001;BME280;29660;42.892;24.710;2022-07-25T02:21:40;96780.69;;;19.63;100.00
44001;BME280;29660;42.892;24.710;2022-07-25T02:26:42;96928.00;;;20.61;100.00
44001;BME280;29660;42.892;24.710;2022-07-25T02:31:44;96886.84;;;20.23;100.00
44001;BME280;29660;42.892;24.710;2022-07-25T02:36:46;96697.47;;;18.93;100.00
44001;BME280;29660;42.892;24.710;2022-07-25T02:41:48;96931.22;;;20.34;100.00
44001;BME280;29660;42.892;24.710;2022-07-25T02:46:50;96930.91;;;20.20;100.00
44001;BME280;29660;42.892;24.710;2022-07-25T02:51:52;96888.91;;;19.95;100.00
44001;BME280;29660;42.892;24.710;2022-07-25T02:56:54;96958.78;;;20.21;100.00
44001;BME280;29660;42.892;24.710;2022-07-25T03:01:57;96698.88;;;18.59;100.00
44001;BME280;29660;42.892;24.710;2022-07-25T03:06:59;96794.53;;;19.14;100.00
44001;BME280;29660;42.892;24.710;2022-07-25T03:12:01;96966.72;;;20.29;100.00
44001;BME280;29660;42.892;24.710;2022-07-25T03:17:03;96744.25;;;18.81;100.00
44001;BME280;29660;42.892;24.710;2022-07-25T03:22:05;96705.16;;;18.63;100.00
44001;BME280;29660;42.892;24.710;2022-07-25T03:27:07;96903.31;;;19.99;100.00
44001;BME280;29660;42.892;24.710;2022-07-25T03:32:09;96777.69;;;19.21;100.00
44001;BME280;29660;42.892;24.710;2022-07-25T03:37:11;96680.94;;;18.67;100.00
44001;BME280;29660;42.892;24.710;2022-07-25T03:42:14;96932.00;;;20.35;100.00
44001;BME280;29660;42.892;24.710;2022-07-25T03:47:16;96934.81;;;20.23;100.00
44001;BME280;29660;42.892;24.710;2022-07-25T03:52:21;96978.25;;;20.58;100.00
44001;BME280;29660;42.892;24.710;2022-07-25T03:57:23;96919.34;;;20.23;100.00
44001;BME280;29660;42.892;24.710;2022-07-25T04:02:25;96748.91;;;19.12;100.00
44001;BME280;29660;42.892;24.710;2022-07-25T04:07:27;96880.38;;;19.93;100.00
44001;BME280;29660;42.892;24.710;2022-07-25T04:12:29;96729.47;;;19.07;100.00
44001;BME280;29660;42.892;24.710;2022-07-25T04:17:31;96872.75;;;19.98;100.00
44001;BME280;29660;42.892;24.710;2022-07-25T04:22:33;96747.06;;;19.32;100.00
44001;BME280;29660;42.892;24.710;2022-07-25T04:27:36;96977.19;;;20.98;100.00
44001;BME280;29660;42.892;24.710;2022-07-25T04:32:38;96920.81;;;20.68;100.00
44001;BME280;29660;42.892;24.710;2022-07-25T04:37:40;96983.19;;;21.07;100.00
44001;BME280;29660;42.892;24.710;2022-07-25T04:42:42;96917.97;;;20.80;100.00
44001;BME280;29660;42.892;24.710;2022-07-25T04:47:44;96989.94;;;21.32;100.00
44001;BME280;29660;42.892;24.710;2022-07-25T04:52:46;96845.41;;;20.39;100.00
44001;BME280;29660;42.892;24.710;2022-07-25T04:57:48;96928.81;;;21.00;100.00
44001;BME280;29660;42.892;24.710;2022-07-25T05:02:50;96941.78;;;21.29;100.00
44001;BME280;29660;42.892;24.710;2022-07-25T05:07:57;96861.44;;;21.02;100.00
44001;BME280;29660;42.892;24.710;2022-07-25T05:12:59;96749.88;;;20.57;100.00
44001;BME280;29660;42.892;24.710;2022-07-25T05:18:01;96991.56;;;22.18;100.00
44001;BME280;29660;42.892;24.710;2022-07-25T05:23:04;96992.59;;;22.33;99.81
44001;BME280;29660;42.892;24.710;2022-07-25T05:28:06;96923.88;;;22.10;98.40
44001;BME280;29660;42.892;24.710;2022-07-25T05:33:08;96864.88;;;21.84;98.53
44001;BME280;29660;42.892;24.710;2022-07-25T05:38:10;96996.25;;;22.94;95.37
44001;BME280;29660;42.892;24.710;2022-07-25T05:43:12;96964.63;;;22.86;93.43
44001;BME280;29660;42.892;24.710;2022-07-25T05:48:15;96782.22;;;21.81;91.56
44001;BME280;29660;42.892;24.710;2022-07-25T05:53:17;96938.03;;;22.98;90.50
44001;BME280;29660;42.892;24.710;2022-07-25T05:58:19;96991.84;;;23.46;89.79
44001;BME280;29660;42.892;24.710;2022-07-25T06:03:25;96974.09;;;23.56;90.03
44001;BME280;29660;42.892;24.710;2022-07-25T06:08:27;96992.50;;;24.03;89.86
44001;BME280;29660;42.892;24.710;2022-07-25T06:13:32;96851.59;;;23.56;86.65
44001;BME280;29660;42.892;24.710;2022-07-25T06:18:34;96955.50;;;24.46;84.36
44001;BME280;29660;42.892;24.710;2022-07-25T06:23:36;96791.03;;;23.69;83.81
44001;BME280;29660;42.892;24.710;2022-07-25T06:28:38;96933.09;;;24.74;74.19
44001;BME280;29660;42.892;24.710;2022-07-25T06:33:40;96930.88;;;24.98;76.20
44001;BME280;29660;42.892;24.710;2022-07-25T06:38:42;96990.44;;;25.55;72.79
44001;BME280;29660;42.892;24.710;2022-07-25T06:43:44;96814.19;;;24.59;71.18
44001;BME280;29660;42.892;24.710;2022-07-25T06:48:47;96934.63;;;25.56;70.33
44001;BME280;29660;42.892;24.710;2022-07-25T06:53:50;96801.03;;;24.79;67.17
44001;BME280;29660;42.892;24.710;2022-07-25T06:58:52;96826.41;;;24.94;68.50
44001;BME280;29660;42.892;24.710;2022-07-25T07:03:54;96692.53;;;24.22;69.90
44001;BME280;29660;42.892;24.710;2022-07-25T07:08:56;96762.84;;;24.83;67.72
44001;BME280;29660;42.892;24.710;2022-07-25T07:13:58;96978.47;;;26.09;67.87
44001;BME280;29660;42.892;24.710;2022-07-25T07:19:00;96938.22;;;25.92;68.22
44001;BME280;29660;42.892;24.710;2022-07-25T07:24:03;96993.72;;;26.32;67.47
44001;BME280;29660;42.892;24.710;2022-07-25T07:29:05;96877.75;;;25.90;66.97
44001;BME280;29660;42.892;24.710;2022-07-25T07:34:07;96595.97;;;24.20;65.37
44001;BME280;29660;42.892;24.710;2022-07-25T07:39:09;96928.13;;;26.46;63.04
44001;BME280;29660;42.892;24.710;2022-07-25T07:44:11;96947.22;;;26.75;62.50
44001;BME280;29660;42.892;24.710;2022-07-25T07:49:13;96936.66;;;26.77;62.43
44001;BME280;29660;42.892;24.710;2022-07-25T07:54:15;96939.75;;;26.82;62.89
44001;BME280;29660;42.892;24.710;2022-07-25T07:59:36;96795.72;;;26.11;63.57
44001;BME280;29660;42.892;24.710;2022-07-25T08:04:38;96981.78;;;27.49;61.82
44001;BME280;29660;42.892;24.710;2022-07-25T08:09:40;96984.63;;;27.28;60.81
44001;BME280;29660;42.892;24.710;2022-07-25T08:14:42;96611.28;;;24.92;61.71
44001;BME280;29660;42.892;24.710;2022-07-25T08:19:44;96938.91;;;27.07;60.69
44001;BME280;29660;42.892;24.710;2022-07-25T08:24:46;96984.13;;;27.51;61.63
44001;BME280;29660;42.892;24.710;2022-07-25T08:29:48;96966.16;;;27.46;60.31
44001;BME280;29660;42.892;24.710;2022-07-25T08:34:51;96811.63;;;26.59;61.27
44001;BME280;29660;42.892;24.710;2022-07-25T08:39:53;96977.00;;;27.75;57.96
44001;BME280;29660;42.892;24.710;2022-07-25T08:44:57;96982.03;;;27.87;57.58
44001;BME280;29660;42.892;24.710;2022-07-25T08:50:05;96974.34;;;28.20;53.99
44001;BME280;29660;42.892;24.710;2022-07-25T08:55:09;96823.13;;;27.21;53.68
44001;BME280;29660;42.892;24.710;2022-07-25T09:00:16;96821.38;;;27.48;54.41
44001;BME280;29660;42.892;24.710;2022-07-25T09:05:20;96740.91;;;27.31;52.25
44001;BME280;29660;42.892;24.710;2022-07-25T09:10:25;96990.22;;;28.91;51.50
44001;BME280;29660;42.892;24.710;2022-07-25T09:15:36;96768.75;;;27.75;49.74
44001;BME280;29660;42.892;24.710;2022-07-25T09:20:51;96814.84;;;27.87;50.34
44001;BME280;29660;42.892;24.710;2022-07-25T09:26:05;96805.69;;;28.01;50.06
44001;BME280;29660;42.892;24.710;2022-07-25T09:31:08;96936.56;;;29.21;48.24
44001;BME280;29660;42.892;24.710;2022-07-25T09:36:10;96742.69;;;27.97;48.50
44001;BME280;29660;42.892;24.710;2022-07-25T09:41:13;96962.59;;;29.74;47.85
44001;BME280;29660;42.892;24.710;2022-07-25T09:46:15;96806.69;;;28.90;47.30
44001;BME280;29660;42.892;24.710;2022-07-25T09:51:17;96849.41;;;29.25;46.88
44001;BME280;29660;42.892;24.710;2022-07-25T09:56:19;96909.78;;;29.86;46.09
44001;BME280;29660;42.892;24.710;2022-07-25T10:01:28;96691.00;;;27.96;46.64
44001;BME280;29660;42.892;24.710;2022-07-25T10:12:05;96729.38;;;28.64;46.04
44001;BME280;29660;42.892;24.710;2022-07-25T10:17:19;96850.38;;;29.69;44.96
44001;BME280;29660;42.892;24.710;2022-07-25T10:22:21;96719.84;;;29.30;44.74
44001;BME280;29660;42.892;24.710;2022-07-25T10:27:46;96935.84;;;30.75;43.65
44001;BME280;29660;42.892;24.710;2022-07-25T10:33:00;96670.75;;;29.08;43.41
44001;BME280;29660;42.892;24.710;2022-07-25T10:38:05;96925.50;;;30.83;42.63
44001;BME280;29660;42.892;24.710;2022-07-25T10:43:16;96695.50;;;29.55;41.46
44001;BME280;29660;42.892;24.710;2022-07-25T10:48:25;96904.72;;;31.38;42.81
44001;BME280;29660;42.892;24.710;2022-07-25T10:53:35;96905.16;;;31.37;41.87
44001;BME280;29660;42.892;24.710;2022-07-25T10:58:56;96908.06;;;31.29;42.39
44001;BME280;29660;42.892;24.710;2022-07-25T11:04:01;96910.16;;;31.22;41.79
44001;BME280;29660;42.892;24.710;2022-07-25T11:09:15;96839.16;;;30.93;39.02
44001;BME280;29660;42.892;24.710;2022-07-25T11:14:31;96676.16;;;29.82;41.41
44001;BME280;29660;42.892;24.710;2022-07-25T11:19:34;96709.31;;;29.75;41.86
44001;BME280;29660;42.892;24.710;2022-07-25T11:24:38;96851.50;;;30.42;41.75
44001;BME280;29660;42.892;24.710;2022-07-25T11:29:41;96759.16;;;30.21;41.67
44001;BME280;29660;42.892;24.710;2022-07-25T11:34:52;96617.09;;;29.71;40.50
44001;BME280;29660;42.892;24.710;2022-07-25T11:39:55;96851.53;;;31.21;40.37
44001;BME280;29660;42.892;24.710;2022-07-25T11:44:57;96686.19;;;30.52;40.95
44001;BME280;29660;42.892;24.710;2022-07-25T11:50:00;96787.59;;;31.30;37.93
44001;BME280;29660;42.892;24.710;2022-07-25T11:55:08;96687.72;;;30.53;38.91
44001;BME280;29660;42.892;24.710;2022-07-25T12:05:19;96850.63;;;31.97;38.72
44001;BME280;29660;42.892;24.710;2022-07-25T12:10:30;96677.00;;;30.95;38.78
44001;BME280;29660;42.892;24.710;2022-07-25T12:15:36;96836.72;;;32.17;37.55
44001;BME280;29660;42.892;24.710;2022-07-25T12:20:39;96831.78;;;32.24;38.39
44001;BME280;29660;42.892;24.710;2022-07-25T12:25:45;96670.09;;;31.20;37.56
44001;BME280;29660;42.892;24.710;2022-07-25T12:30:47;96800.03;;;32.04;37.83
44001;BME280;29660;42.892;24.710;2022-07-25T12:35:56;96754.78;;;31.36;38.06
44001;BME280;29660;42.892;24.710;2022-07-25T12:40:59;96801.47;;;32.08;36.52
44001;BME280;29660;42.892;24.710;2022-07-25T12:46:01;96773.59;;;32.19;37.03
44001;BME280;29660;42.892;24.710;2022-07-25T12:51:03;96557.81;;;30.78;36.24
44001;BME280;29660;42.892;24.710;2022-07-25T12:56:05;96799.16;;;32.65;36.04
44001;BME280;29660;42.892;24.710;2022-07-25T13:01:07;96716.63;;;32.12;35.28
44001;BME280;29660;42.892;24.710;2022-07-25T13:06:10;96705.00;;;32.05;36.31
44001;BME280;29660;42.892;24.710;2022-07-25T13:11:12;96710.75;;;32.10;36.08
44001;BME280;29660;42.892;24.710;2022-07-25T13:16:14;96731.28;;;31.64;36.26
44001;BME280;29660;42.892;24.710;2022-07-25T13:21:16;96570.25;;;30.14;36.54
44001;BME280;29660;42.892;24.710;2022-07-25T13:26:19;96784.41;;;31.32;37.17
44001;BME280;29660;42.892;24.710;2022-07-25T13:31:21;96653.69;;;30.64;36.94
44001;BME280;29660;42.892;24.710;2022-07-25T13:36:24;96762.28;;;31.84;37.00
44001;BME280;29660;42.892;24.710;2022-07-25T13:41:27;96762.81;;;31.95;36.00
44001;BME280;29660;42.892;24.710;2022-07-25T13:46:31;96551.09;;;30.96;35.93
44001;BME280;29660;42.892;24.710;2022-07-25T13:51:33;96725.19;;;32.01;36.05
44001;BME280;29660;42.892;24.710;2022-07-25T13:56:35;96486.13;;;30.49;36.48
44001;BME280;29660;42.892;24.710;2022-07-25T14:01:37;96582.50;;;31.15;35.98
44001;BME280;29660;42.892;24.710;2022-07-25T14:06:39;96631.50;;;31.69;36.08
44001;BME280;29660;42.892;24.710;2022-07-25T14:11:41;96531.56;;;30.90;35.28
44001;BME280;29660;42.892;24.710;2022-07-25T14:16:43;96739.81;;;32.15;36.16
44001;BME280;29660;42.892;24.710;2022-07-25T14:21:45;96565.63;;;30.96;35.57
44001;BME280;29660;42.892;24.710;2022-07-25T14:26:47;96609.19;;;31.18;34.95
44001;BME280;29660;42.892;24.710;2022-07-25T14:31:51;96532.75;;;30.73;35.25
44001;BME280;29660;42.892;24.710;2022-07-25T14:36:53;96528.63;;;30.81;35.09
44001;BME280;29660;42.892;24.710;2022-07-25T14:41:55;96554.97;;;30.98;35.77
44001;BME280;29660;42.892;24.710;2022-07-25T14:46:58;96725.81;;;31.93;35.79
44001;BME280;29660;42.892;24.710;2022-07-25T14:52:01;96714.44;;;31.91;35.58
44001;BME280;29660;42.892;24.710;2022-07-25T14:57:03;96533.28;;;30.68;35.78
44001;BME280;29660;42.892;24.710;2022-07-25T15:02:05;96485.66;;;30.38;36.16
44001;BME280;29660;42.892;24.710;2022-07-25T15:07:08;96344.53;;;29.56;35.75
44001;BME280;29660;42.892;24.710;2022-07-25T15:12:10;96694.38;;;31.74;35.56
44001;BME280;29660;42.892;24.710;2022-07-25T15:17:17;96709.28;;;31.76;35.66
44001;BME280;29660;42.892;24.710;2022-07-25T15:22:19;96681.44;;;31.71;35.65
44001;BME280;29660;42.892;24.710;2022-07-25T15:27:21;96480.03;;;30.25;36.45
44001;BME280;29660;42.892;24.710;2022-07-25T15:32:23;96687.84;;;31.51;36.83
44001;BME280;29660;42.892;24.710;2022-07-25T15:37:27;96651.41;;;31.27;36.89
44001;BME280;29660;42.892;24.710;2022-07-25T15:42:29;96576.53;;;30.67;36.11
44001;BME280;29660;42.892;24.710;2022-07-25T15:47:32;96481.53;;;29.94;37.20
44001;BME280;29660;42.892;24.710;2022-07-25T15:52:34;96659.28;;;31.13;37.34
44001;BME280;29660;42.892;24.710;2022-07-25T15:57:36;96538.75;;;30.19;36.95
44001;BME280;29660;42.892;24.710;2022-07-25T16:02:38;96629.09;;;30.73;37.29
44001;BME280;29660;42.892;24.710;2022-07-25T16:07:41;96537.34;;;30.11;37.07
44001;BME280;29660;42.892;24.710;2022-07-25T16:12:43;96497.06;;;29.84;37.78
44001;BME280;29660;42.892;24.710;2022-07-25T16:17:46;96714.09;;;30.91;39.24
44001;BME280;29660;42.892;24.710;2022-07-25T16:22:49;96719.84;;;30.60;40.15
44001;BME280;29660;42.892;24.710;2022-07-25T16:27:57;96687.13;;;30.46;40.39
44001;BME280;29660;42.892;24.710;2022-07-25T16:32:59;96701.81;;;30.19;40.73
44001;BME280;29660;42.892;24.710;2022-07-25T16:38:01;96720.63;;;30.21;41.42
44001;BME280;29660;42.892;24.710;2022-07-25T16:43:04;96714.66;;;30.02;41.27
44001;BME280;29660;42.892;24.710;2022-07-25T16:48:06;96613.31;;;29.18;41.94
44001;BME280;29660;42.892;24.710;2022-07-25T16:53:08;96549.44;;;28.67;42.23
44001;BME280;29660;42.892;24.710;2022-07-25T16:58:10;96569.84;;;28.66;42.18
44001;BME280;29660;42.892;24.710;2022-07-25T17:03:12;96468.00;;;27.82;42.85
44001;BME280;29660;42.892;24.710;2022-07-25T17:08:14;96484.56;;;27.75;43.18
44001;BME280;29660;42.892;24.710;2022-07-25T17:13:17;96473.06;;;27.53;43.63
44001;BME280;29660;42.892;24.710;2022-07-25T17:18:19;96677.72;;;28.59;44.66
44001;BME280;29660;42.892;24.710;2022-07-25T17:23:22;96563.66;;;27.70;44.86
44001;BME280;29660;42.892;24.710;2022-07-25T17:28:24;96722.47;;;28.52;45.71
44001;BME280;29660;42.892;24.710;2022-07-25T17:33:26;96733.47;;;28.52;46.43
44001;BME280;29660;42.892;24.710;2022-07-25T17:38:28;96740.69;;;28.35;47.60
44001;BME280;29660;42.892;24.710;2022-07-25T17:43:35;96736.28;;;28.11;47.97
44001;BME280;29660;42.892;24.710;2022-07-25T17:48:39;96523.34;;;26.53;48.81
44001;BME280;29660;42.892;24.710;2022-07-25T17:53:41;96700.41;;;27.53;48.99
44001;BME280;29660;42.892;24.710;2022-07-25T17:58:43;96729.31;;;27.58;49.75
44001;BME280;29660;42.892;24.710;2022-07-25T18:03:45;96543.84;;;26.20;49.99
44001;BME280;29660;42.892;24.710;2022-07-25T18:08:48;96566.53;;;26.13;51.81
44001;BME280;29660;42.892;24.710;2022-07-25T18:13:50;96768.72;;;27.23;53.24
44001;BME280;29660;42.892;24.710;2022-07-25T18:18:52;96787.59;;;26.99;54.17
44001;BME280;29660;42.892;24.710;2022-07-25T18:23:58;96793.97;;;26.82;57.08
44001;BME280;29660;42.892;24.710;2022-07-25T18:29:05;96735.94;;;26.28;57.04
44001;BME280;29660;42.892;24.710;2022-07-25T18:34:07;96788.63;;;26.39;59.75
44001;BME280;29660;42.892;24.710;2022-07-25T18:39:12;96788.28;;;26.19;60.56
44001;BME280;29660;42.892;24.710;2022-07-25T18:44:15;96607.38;;;24.83;61.74
44001;BME280;29660;42.892;24.710;2022-07-25T18:49:17;96637.00;;;24.81;62.21
44001;BME280;29660;42.892;24.710;2022-07-25T18:54:19;96798.06;;;25.74;62.68
44001;BME280;29660;42.892;24.710;2022-07-25T18:59:21;96618.22;;;24.33;62.82
44001;BME280;29660;42.892;24.710;2022-07-25T19:04:25;96839.06;;;25.52;64.25
44001;BME280;29660;42.892;24.710;2022-07-25T19:09:27;96826.53;;;25.26;66.52
44001;BME280;29660;42.892;24.710;2022-07-25T19:14:29;96661.66;;;24.00;65.56
44001;BME280;29660;42.892;24.710;2022-07-25T19:19:31;96654.59;;;23.82;67.23
44001;BME280;29660;42.892;24.710;2022-07-25T19:24:34;96835.75;;;24.86;67.72
44001;BME280;29660;42.892;24.710;2022-07-25T19:29:36;96609.03;;;23.13;69.01
44001;BME280;29660;42.892;24.710;2022-07-25T19:34:38;96846.91;;;24.56;69.74
44001;BME280;29660;42.892;24.710;2022-07-25T19:39:40;96772.09;;;23.84;70.39
44001;BME280;29660;42.892;24.710;2022-07-25T19:44:42;96611.88;;;22.83;69.81
44001;BME280;29660;42.892;24.710;2022-07-25T19:49:44;96627.44;;;22.86;71.20
44001;BME280;29660;42.892;24.710;2022-07-25T19:54:46;96654.31;;;22.91;72.42
44001;BME280;29660;42.892;24.710;2022-07-25T19:59:48;96616.41;;;22.64;71.33
44001;BME280;29660;42.892;24.710;2022-07-25T20:04:50;96839.56;;;24.08;72.35
44001;BME280;29660;42.892;24.710;2022-07-25T20:09:52;96632.94;;;22.48;72.73
44001;BME280;29660;42.892;24.710;2022-07-25T20:14:54;96648.56;;;22.59;72.25
44001;BME280;29660;42.892;24.710;2022-07-25T20:19:57;96645.25;;;22.39;74.63
44001;BME280;29660;42.892;24.710;2022-07-25T20:24:59;96721.22;;;22.62;74.29
44001;BME280;29660;42.892;24.710;2022-07-25T20:30:01;96840.97;;;23.43;74.49
44001;BME280;29660;42.892;24.710;2022-07-25T20:35:04;96592.19;;;21.77;74.33
44001;BME280;29660;42.892;24.710;2022-07-25T20:40:07;96849.84;;;23.37;75.20
44001;BME280;29660;42.892;24.710;2022-07-25T20:45:09;96560.72;;;21.43;75.68
44001;BME280;29660;42.892;24.710;2022-07-25T20:50:12;96706.94;;;22.35;76.17
44001;BME280;29660;42.892;24.710;2022-07-25T20:55:14;96526.00;;;20.99;76.86
44001;BME280;29660;42.892;24.710;2022-07-25T21:00:16;96854.47;;;22.95;77.62
44001;BME280;29660;42.892;24.710;2022-07-25T21:05:19;96804.00;;;22.38;80.60
44001;BME280;29660;42.892;24.710;2022-07-25T21:10:22;96834.72;;;22.42;80.47
44001;BME280;29660;42.892;24.710;2022-07-25T21:15:24;96583.75;;;20.76;81.16
44001;BME280;29660;42.892;24.710;2022-07-25T21:20:26;96877.88;;;22.47;80.90
44001;BME280;29660;42.892;24.710;2022-07-25T21:25:28;96873.94;;;22.41;82.48
44001;BME280;29660;42.892;24.710;2022-07-25T21:30:30;96813.53;;;21.98;84.74
44001;BME280;29660;42.892;24.710;2022-07-25T21:35:32;96827.13;;;21.75;85.92
44001;BME280;29660;42.892;24.710;2022-07-25T21:40:47;96574.06;;;20.10;84.31
44001;BME280;29660;42.892;24.710;2022-07-25T21:45:49;96749.09;;;21.22;85.04
44001;BME280;29660;42.892;24.710;2022-07-25T21:50:52;96860.72;;;21.90;83.98
44001;BME280;29660;42.892;24.710;2022-07-25T21:55:54;96746.00;;;21.01;86.41
44001;BME280;29660;42.892;24.710;2022-07-25T22:00:56;96870.38;;;21.64;85.64
44001;BME280;29660;42.892;24.710;2022-07-25T22:05:58;96604.78;;;19.79;88.15
44001;BME280;29660;42.892;24.710;2022-07-25T22:11:00;96427.94;;;18.55;89.43
44001;BME280;29660;42.892;24.710;2022-07-25T22:16:08;96701.22;;;20.26;90.14
44001;BME280;29660;42.892;24.710;2022-07-25T22:21:12;96849.31;;;21.15;90.45
44001;BME280;29660;42.892;24.710;2022-07-25T22:26:14;96601.47;;;19.50;90.56
44001;BME280;29660;42.892;24.710;2022-07-25T22:31:16;96604.22;;;19.34;92.97
44001;BME280;29660;42.892;24.710;2022-07-25T22:36:18;96546.13;;;18.93;92.08
44001;BME280;29660;42.892;24.710;2022-07-25T22:41:20;96808.69;;;20.57;93.35
44001;BME280;29660;42.892;24.710;2022-07-25T22:46:22;96825.59;;;20.70;93.59
44001;BME280;29660;42.892;24.710;2022-07-25T22:51:26;96619.41;;;19.23;94.48
44001;BME280;29660;42.892;24.710;2022-07-25T22:56:28;96855.47;;;20.73;92.49
44001;BME280;29660;42.892;24.710;2022-07-25T23:01:30;96779.22;;;20.36;92.80
44001;BME280;29660;42.892;24.710;2022-07-25T23:06:33;96813.41;;;20.60;93.56
44001;BME280;29660;42.892;24.710;2022-07-25T23:11:36;96726.94;;;19.97;93.69
44001;BME280;29660;42.892;24.710;2022-07-25T23:16:38;96759.88;;;20.18;95.43
44001;BME280;29660;42.892;24.710;2022-07-25T23:21:40;96737.91;;;20.04;94.95
44001;BME280;29660;42.892;24.710;2022-07-25T23:26:42;96569.50;;;18.85;93.95
44001;BME280;29660;42.892;24.710;2022-07-25T23:31:45;96791.81;;;20.28;95.95
44001;BME280;29660;42.892;24.710;2022-07-25T23:36:47;96733.34;;;19.89;95.03
44001;BME280;29660;42.892;24.710;2022-07-25T23:41:49;96552.50;;;18.69;94.50
44001;BME280;29660;42.892;24.710;2022-07-25T23:46:54;96778.25;;;20.09;97.67
44001;BME280;29660;42.892;24.710;2022-07-25T23:51:57;96773.78;;;19.81;98.59
44001;BME280;29660;42.892;24.710;2022-07-25T23:57:02;96717.97;;;19.42;99.31
